Las Vegas/Nellis AFB, Nevada
Current Conditions -  °F | °C
As of 7:58 AM on Sunday 25 Jan 2015 (Local Time) from KLSV Reporting Station
Clear Clear  
Wind Chill: 48°   Ceiling: Unl
Heat Index: 48°   Visibility: 10mi
Dew Point: 28°   Wind: 2mph
Humidity: 46%   Direction: 310°NW
Pressure: 30.29"   Gusts: NA
Location:  36.25°N, 115.03°W
Report Text: KLSV 251558Z AUTO 31002KT 10SM CLR 09/M02 A3029 RMK AO2 SLP256 T00891022 $
Loading
Personal Weather Stations






























Interactive Weather Map New forecast layout! Learn more

10-Day Weather Forecast

Advertisements
Track Severe Weather on mobile